KIJX

Jacksonville Municipal Airport

Jacksonville, Illinois, USA
METAR KIJX 151535Z AUTO 01011KT 10SM CLR 01/M03 A3013 RMK AO2 T00061033
Observed Flight Rules
Dec-15 @ 15:35 UTC (29 minutes ago) Visual Flight Rules
Wind Visibility Clouds
10° at 11 knots 10 miles
  • Clear skies
Temperatures Readings
Current 1°C / 34°F
Dewpoint -3°C / 27°F
Humidity 75%
Altimeter 30.13" Hg
Pressure 1020 hPa
Elevation 190
METAR KIJX 151535Z AUTO 01011KT 10SM CLR 01/M03 A3013 RMK AO2 T00061033
Observed Flight Rules
Dec-15 @ 15:35 UTC
(29 minutes ago)
VFR
Wind Visibility
10° at 11 knots 10 miles
Clouds
  • Clear skies
Temperature Dewpoint
1°C / 34°F -3°C / 27°F
Humidity Altimeter Pressure
75% 30.13" Hg 1020 hPa